City of Colorado Springs Municipal Airport
KCOS : now visible

Airfield :











YOU CAN JOIN US ON...

 
LOGIN :

Register | Disclaimer

   EN    FR    IT 

 









Legend :    VFR   Marginal VFR   IFR   Intensive IFR   Very Intensive IFR
Visi :
Ceiling :
>= 8 km
>= 3000ft
5 to 8 km
1000 to 3000 ft
1500m to 5 km
500 to 1000 ft
800 to 1500m
200 to 500 ft
< 800m
< 200 ft
Symbols :   Thunderstorms  Fog  Heavy snow  Heavy precipitations  Wind > 20 kt






- Airport Elevation : 6187 ft
- IATA code : COS


KCOS - City of Colorado Springs Municipal

CURRENT METAR :
  • 282254Z 06013G22KT 10SM VCTS -RA SCT070CB BKN100 BKN200 21/03 A3023 RMK AO2 PK WND 07027/2155 WSHFT 2234 RAB49 SLP176 OCNL LTGICCG VC SW TS VC SW MOV E P0000 T02060028

EXPIRED METARs :
  • 282234Z 03011G20KT 10SM VCTS SCT070CB BKN100 BKN200 21/03 A3023 RMK AO2 PK WND 07027/2155 OCNL LTGICCG VC SW TS VC SW MOV E VCSH SW T02110028
  • 282154Z 05022G30KT 10SM BKN100 BKN140 BKN200 22/04 A3023 RMK AO2 PK WND 05031/2141 SLP173 VCSH W-NE T02220039
  • 282054Z 05017G24KT 10SM SCT100 SCT140 BKN200 25/03 A3022 RMK AO2 RAE1956 SLP164 CB DSNT E-SE MOV E P0000 60000 T02500033 58009
  • 281954Z 11007G19KT 10SM -RA SCT100 BKN140 BKN200 23/01 A3023 RMK AO2 PK WND 31038/1936 WSHFT 1907 RAB38 SLP171 CB DSNT NE MOV E P0000 T02280006
  • 281927Z 34016G31KT 10SM VCTS BKN100CB BKN140 BKN200 21/M01 A3027 RMK AO2 PK WND 31037/1911 WSHFT 1907 OCNL LTGICCG VC SW-W TS VC SW-W MOV E T02111006
  • 281854Z 22006KT 10SM SCT100 BKN140 BKN200 23/01 A3025 RMK AO2 SLP174 CB DSNT W MOV E T02280006
  • 281754Z 12007KT 10SM R17L/5500VP6000FT SCT100 SCT250 24/01 A3025 RMK AO2 SLP166 T02440011 10244 20089 58008

TAF KCOS
Valid from the 28 at 19:00 until the 29 at 18:00 UTC


281843Z 2819/2918 13008KT P6SM FEW100 SCT250
FM282000 12010KT P6SM VCTS SCT100CB BKN250
TEMPO 2820/2823 VRB15G30KT
FM282300 03015G25KT P6SM VCSH BKN100
FM290300 01009KT P6SM BKN080 OVC120
FM290600 12006KT P6SM SCT020
FM291000 14008KT P6SM BKN020
FM291600 16008KT P6SM SCT020 SCT100
KZDV FIR / North America



MET'MAP, your aeronautical weather chart ! - Copyright ORBIFLY December 2007 - Disclaimer

ORBIFLY MET'MAP TEAM :

Programming & Development : Alexandra Zaïnal
Original concept : Baudouin d'Aumeries
Technical & hardware support : Manuel Goepfert
Assistance : Marc-Olivier Méhu




SOURCES & CREDITS :

   NOAA       Earth
Advisory